Time;durP1;ratioP1;P1;durP2;ratioP2;P2;SDS_P1;SDS_P2;PMS_P1;PMS_P2;Temp;Humidity;BMP_temperature;BMP_pressure;BME280_temperature;BME280_humidity;BME280_pressure;Samples;Min_cycle;Max_cycle;Signal;HPM_P1;HPM_P2
2021/06/30 00:00:59;;;;;;;;;;;15.30;99.90;;;;;;5139709;27;20080;-70
2021/06/30 00:03:25;;;;;;;1.63;1.50;;;15.30;99.90;;;;;;5124933;28;20010;-69
2021/06/30 00:05:50;;;;;;;;;;;15.30;99.90;;;;;;5125609;28;20043;-69
2021/06/30 00:08:16;;;;;;;1.90;1.40;;;;;;;;;;5125857;28;19919;-69
2021/06/30 00:10:42;;;;;;;;;;;;;;;;;;5126351;28;20496;-69
2021/06/30 00:13:10;;;;;;;1.88;1.60;;;;;;;;;;5124433;28;19919;-69
2021/06/30 00:15:36;;;;;;;1.80;1.60;;;;;;;;;;5124704;28;20047;-69
2021/06/30 00:18:02;;;;;;;1.50;1.40;;;;;;;;;;5116252;28;20077;-71
2021/06/30 00:20:28;;;;;;;3.58;2.38;;;;;;;;;;5098124;28;20499;-69
2021/06/30 00:22:54;;;;;;;;;;;;;;;;;;5073709;28;20108;-70
2021/06/30 00:25:21;;;;;;;1.75;1.27;;;;;;;;;;5091215;28;19920;-71
2021/06/30 00:27:48;;;;;;;2.00;1.80;;;;;;;;;;5093128;27;20101;-70
2021/06/30 00:30:14;;;;;;;2.92;1.98;;;;;;;;;;5111805;27;20700;-70
2021/06/30 00:32:40;;;;;;;5.05;2.20;;;;;;;;;;5109992;28;20047;-69
2021/06/30 00:35:06;;;;;;;;;;;;;;;;;;5091895;28;20085;-70
2021/06/30 00:37:32;;;;;;;2.33;1.80;;;;;;;;;;5090601;28;19916;-72
2021/06/30 00:39:58;;;;;;;;;;;;;;;;;;5091830;28;20040;-72
2021/06/30 00:42:27;;;;;;;1.58;1.30;;;;;;;;;;5089929;28;19923;-71
2021/06/30 00:44:53;;;;;;;2.63;1.30;;;;;;;;;;5090625;28;20093;-72
2021/06/30 00:47:21;;;;;;;;;;;;;;;;;;5090801;28;20135;-71
2021/06/30 00:49:47;;;;;;;1.58;1.40;;;;;;;;;;5091231;28;19920;-70
2021/06/30 00:52:13;;;;;;;;;;;;;;;;;;5090752;28;20598;-71
2021/06/30 00:54:39;;;;;;;1.75;1.33;;;;;;;;;;5105286;28;20002;-73
2021/06/30 00:57:05;;;;;;;3.30;1.00;;;;;;;;;;5102238;28;20044;-69
2021/06/30 00:59:31;;;;;;;3.13;1.02;;;;;;;;;;5108324;27;20044;-71
2021/06/30 01:01:57;;;;;;;;;;;;;;;;;;5097632;28;20035;-72
2021/06/30 01:04:23;;;;;;;0.90;0.90;;;;;;;;;;5103083;28;20419;-71
2021/06/30 01:06:49;;;;;;;;;;;;;;;;;;5111160;28;20488;-72
2021/06/30 01:09:15;;;;;;;1.42;0.88;;;;;;;;;;5109831;28;19926;-71
2021/06/30 01:11:41;;;;;;;1.55;1.17;;;;;;;;;;5111037;28;20050;-71
2021/06/30 01:14:08;;;;;;;5.45;1.23;;;;;;;;;;5110275;28;20039;-71
2021/06/30 01:16:34;;;;;;;1.90;1.17;;;;;;;;;;5109777;28;20514;-69
2021/06/30 01:18:59;;;;;;;;;;;;;;;;;;5111619;28;20040;-70
2021/06/30 01:21:26;;;;;;;1.23;1.10;;;;;;;;;;5111364;28;19923;-71
2021/06/30 01:23:52;;;;;;;1.73;1.40;;;;;;;;;;5109958;28;20040;-70
2021/06/30 01:26:18;;;;;;;;;;;;;;;;;;5110694;28;20178;-70
2021/06/30 01:28:44;;;;;;;3.13;1.10;;;;;;;;;;5094749;28;19937;-71
2021/06/30 01:31:10;;;;;;;;;;;;;;;;;;5091162;28;20503;-71
2021/06/30 01:33:36;;;;;;;1.20;1.00;;;;;;;;;;5100953;28;20450;-71
2021/06/30 01:36:02;;;;;;;3.03;1.42;;;;;;;;;;5072361;28;20032;-69
2021/06/30 01:38:30;;;;;;;1.40;1.10;;;;;;;;;;5097676;28;20585;-70
2021/06/30 01:40:57;;;;;;;1.67;1.17;;;;;;;;;;5101912;28;20044;-70
2021/06/30 01:43:23;;;;;;;2.22;1.10;;;;;;;;;;5109741;28;20533;-71
2021/06/30 01:45:50;;;;;;;1.10;1.00;;;;;;;;;;5109671;28;20043;-71
2021/06/30 01:48:16;;;;;;;1.15;1.05;;;;;;;;;;5109810;28;20035;-69
2021/06/30 01:50:42;;;;;;;1.95;1.00;;;;;;;;;;5110050;28;20088;-70
2021/06/30 01:53:08;;;;;;;;;;;;;;;;;;5105929;28;20040;-72
2021/06/30 01:55:35;;;;;;;5.35;0.90;;;;;;;;;;5071031;28;20006;-71
2021/06/30 01:58:01;;;;;;;7.47;1.00;;;;;;;;;;5111935;27;20066;-70
2021/06/30 02:00:27;;;;;;;5.88;1.02;;;;;;;;;;5108993;28;20043;-70
2021/06/30 02:02:53;;;;;;;9.13;1.83;;;;;;;;;;5109483;28;20039;-71
2021/06/30 02:05:19;;;;;;;;;;;;;;;;;;5109807;28;20035;-71
2021/06/30 02:07:46;;;;;;;1.75;0.80;;;;;;;;;;5108961;28;20378;-70
2021/06/30 02:10:12;;;;;;;4.80;1.15;;;;;;;;;;5110436;28;20035;-70
2021/06/30 02:12:38;;;;;;;1.88;1.00;;;;;;;;;;5108223;28;20632;-71
2021/06/30 02:15:04;;;;;;;;;;;;;;;;;;5101281;28;20178;-71
2021/06/30 02:17:30;;;;;;;0.88;0.80;;;;;;;;;;5109017;28;20377;-70
2021/06/30 02:19:56;;;;;;;;;;;;;;;;;;5110039;28;20035;-70
2021/06/30 02:22:22;;;;;;;2.25;1.38;;;;;;;;;;5108168;28;19919;-69
2021/06/30 02:24:48;;;;;;;;;;;;;;;;;;5110199;28;20053;-72
2021/06/30 02:27:14;;;;;;;2.47;1.10;;;;;;;;;;5109392;28;19923;-71
2021/06/30 02:29:40;;;;;;;;;;;;;;;;;;5111945;27;20088;-70
2021/06/30 02:32:07;;;;;;;1.80;1.35;;;;;;;;;;5108803;28;19962;-71
2021/06/30 02:34:33;;;;;;;1.63;1.40;;;;;;;;;;5109136;28;20039;-71
2021/06/30 02:36:59;;;;;;;1.38;1.27;;;;;;;;;;5108774;28;20090;-71
2021/06/30 02:39:25;;;;;;;;;;;;;;;;;;5109545;28;20513;-71
2021/06/30 02:41:51;;;;;;;2.88;1.35;;;;;;;;;;5108709;28;19944;-69
2021/06/30 02:44:16;;;;;;;;;;;;;;;;;;5109462;28;20039;-70
2021/06/30 02:46:42;;;;;;;1.90;1.60;;;;;;;;;;5108301;28;19969;-71
2021/06/30 02:49:08;;;;;;;;;;;;;;;;;;5109536;28;20043;-70
2021/06/30 02:51:34;;;;;;;3.58;1.15;;;;;;;;;;5108733;28;19923;-71
2021/06/30 02:54:00;;;;;;;;;;;;;;;;;;5109215;28;20035;-70
2021/06/30 02:56:26;;;;;;;2.35;1.48;;;;;;;;;;5109002;28;20012;-70
2021/06/30 02:58:52;;;;;;;;;;;;;;;;;;5112801;28;20505;-70
2021/06/30 03:01:18;;;;;;;9.23;1.58;;;;;;;;;;5109059;28;19916;-71
2021/06/30 03:03:44;;;;;;;;;;;;;;;;;;5110294;28;20038;-71
2021/06/30 03:06:10;;;;;;;4.13;1.60;;;;;;;;;;5109250;28;19920;-71
2021/06/30 03:08:36;;;;;;;4.50;2.10;;;;;;;;;;5109398;28;20050;-68
2021/06/30 03:11:02;;;;;;;;;;;;;;;;;;5109066;28;20074;-69
2021/06/30 03:13:28;;;;;;;14.55;1.40;;;;;;;;;;5108774;28;19963;-67
2021/06/30 03:15:54;;;;;;;;;;;;;;;;;;5108741;28;20036;-68
2021/06/30 03:18:20;;;;;;;2.83;1.30;;;;;;;;;;5108211;28;19923;-68
2021/06/30 03:20:46;;;;;;;;;;;;;;;;;;5109629;28;20533;-69
2021/06/30 03:23:13;;;;;;;3.15;1.70;;;;;;;;;;5108649;28;19933;-69
2021/06/30 03:25:39;;;;;;;4.03;1.60;;;;;;;;;;5108213;28;20050;-68
2021/06/30 03:28:06;;;;;;;1.85;1.48;;;;;;;;;;5111069;28;20493;-68
2021/06/30 03:30:34;;;;;;;1.50;1.30;;;;;;;;;;5089730;28;20560;-68
2021/06/30 03:33:00;;;;;;;3.75;1.27;;;;;;;;;;5108771;28;20067;-68
2021/06/30 03:35:26;;;;;;;;;;;;;;;;;;5108467;28;20082;-68
2021/06/30 03:37:52;;;;;;;2.13;1.60;;;;;;;;;;5107193;28;20359;-67
2021/06/30 03:40:18;;;;;;;;;;;;;;;;;;5109943;28;20059;-66
2021/06/30 03:42:44;;;;;;;6.05;1.50;;;;;;;;;;5108296;28;19924;-68
2021/06/30 03:45:09;;;;;;;;;;;;;;;;;;5107239;28;20040;-69
2021/06/30 03:47:36;;;;;;;3.80;1.55;;;;;;;;;;5106131;28;19923;-68
2021/06/30 03:50:02;;;;;;;2.15;1.60;;;;;;;;;;5099310;28;20036;-69
2021/06/30 03:52:27;;;;;;;;;;;;;;;;;;5088357;28;20040;-70
2021/06/30 03:54:54;;;;;;;1.98;1.50;;;;;;;;;;5110400;28;20632;-68
2021/06/30 03:57:20;;;;;;;2.97;1.60;;;;;;;;;;5097809;28;20067;-69
2021/06/30 03:59:46;;;;;;;6.60;1.38;;;;;;;;;;5111915;27;20118;-67
2021/06/30 04:02:12;;;;;;;1.67;1.58;;;;;;;;;;5110679;28;20571;-68
2021/06/30 04:04:38;;;;;;;;;;;;;;;;;;5111332;28;20039;-69
2021/06/30 04:07:04;;;;;;;1.83;1.38;;;;;;;;;;5111139;28;19923;-69
2021/06/30 04:09:30;;;;;;;4.53;1.50;;;;;;;;;;5111371;28;20506;-71
2021/06/30 04:11:56;;;;;;;4.00;1.23;;;;;;;;;;5111383;28;20044;-69
2021/06/30 04:14:22;;;;;;;;;;;;;;;;;;5113238;28;20416;-70
2021/06/30 04:16:48;;;;;;;3.05;1.45;;;;;;;;;;5107364;27;19924;-70
2021/06/30 04:19:14;;;;;;;;;;;;;;;;;;5104091;28;20075;-68
2021/06/30 04:21:40;;;;;;;2.65;1.20;;;;;;;;;;5111398;28;19934;-68
2021/06/30 04:24:09;;;;;;;3.22;1.33;;;;;;;;;;5110340;28;20044;-69
2021/06/30 04:26:36;;;;;;;4.75;1.48;;;;;;;;;;5126925;27;20047;-68
2021/06/30 04:29:02;;;;;;;4.97;1.52;;;;;;;;;;5113666;27;20043;-68
2021/06/30 04:31:28;;;;;;;4.32;1.52;;;;;;;;;;5109720;28;20443;-68
2021/06/30 04:33:54;;;;;;;;;;;;;;;;;;5100460;28;20563;-68
2021/06/30 04:36:20;;;;;;;4.07;2.53;;;;;;;;;;5089789;28;19916;-68
2021/06/30 04:38:46;;;;;;;;;;;;;;;;;;5092235;28;20042;-68
2021/06/30 04:41:12;;;;;;;3.55;1.40;;;;;;;;;;5090072;28;19951;-68
2021/06/30 04:43:39;;;;;;;2.15;1.52;;;;;;;;;;5091018;28;20488;-70
2021/06/30 04:46:06;;;;;;;8.38;1.67;;;;;;;;;;5091146;28;20087;-70
2021/06/30 04:48:34;;;;;;;5.50;1.67;;;;;;;;;;5090806;28;20043;-71
2021/06/30 04:51:00;;;;;;;1.98;1.55;;;;;;;;;;5092372;28;20135;-71
2021/06/30 04:53:26;;;;;;;;;;;;;;;;;;5097315;28;20043;-69
2021/06/30 04:55:53;;;;;;;2.65;1.90;;;;;;;;;;5101671;28;19920;-69
2021/06/30 04:58:19;;;;;;;2.20;1.33;;;;;;;;;;5114129;27;20123;-68
2021/06/30 05:00:44;;;;;;;;;;;;;;;;;;5111578;28;20111;-69
2021/06/30 05:03:10;;;;;;;4.85;1.42;;;;;;;;;;5111091;28;19994;-69
2021/06/30 05:05:36;;;;;;;;;;;;;;;;;;5111221;28;20489;-67
2021/06/30 05:08:02;;;;;;;2.28;1.20;;;;;;;;;;5109958;28;20375;-69
2021/06/30 05:10:29;;;;;;;3.63;1.52;;;;;;;;;;5111324;28;20032;-67
2021/06/30 05:12:55;;;;;;;10.23;1.25;;;;;;;;;;5110981;28;20578;-68
2021/06/30 05:15:22;;;;;;;2.08;1.45;;;;;;;;;;5110608;28;20066;-67
2021/06/30 05:17:49;;;;;;;5.93;1.40;;;;;;;;;;5109309;28;20027;-71
2021/06/30 05:20:15;;;;;;;6.07;1.70;;;;;;;;;;5111120;28;20051;-71
2021/06/30 05:22:41;;;;;;;;;;;;;;;;;;5111136;28;20252;-70
2021/06/30 05:25:07;;;;;;;2.53;1.52;;;;;;;;;;5110920;28;19964;-69
2021/06/30 05:27:33;;;;;;;1.48;1.20;;;;;;;;;;5110973;28;20043;-73
2021/06/30 05:29:59;;;;;;;;;;;;;;;;;;5113579;27;20035;-68
2021/06/30 05:32:25;;;;;;;3.63;1.48;;;;;;;;;;5110095;28;19916;-69
2021/06/30 05:34:51;;;;;;;;;;;;;;;;;;5092409;28;20523;-69
2021/06/30 05:37:17;;;;;;;5.25;1.60;;;;;;;;;;5090731;28;19935;-69
2021/06/30 05:39:43;;;;;;;;;;;;;;;;;;5089574;28;20036;-68
2021/06/30 05:42:09;;;;;;;2.75;1.73;;;;;;;;;;5088575;28;20288;-71
2021/06/30 05:44:35;;;;;;;3.20;1.45;;;;;;;;;;5089417;28;20071;-70
2021/06/30 05:47:01;;;;;;;;;;;;;;;;;;5089094;28;20052;-70
2021/06/30 05:49:27;;;;;;;3.08;1.48;;;;;;;;;;5090121;28;19920;-68
2021/06/30 05:51:53;;;;;;;;;;;;;;;;;;5090187;28;20071;-69
2021/06/30 05:54:19;;;;;;;2.20;1.52;;;;;;;;;;5100495;28;19920;-71
2021/06/30 05:56:44;;;;;;;;;;;;;;;;;;5096171;28;20119;-68
2021/06/30 05:59:11;;;;;;;2.13;1.77;;;;;;;;;;5105265;27;20587;-71
2021/06/30 06:01:37;;;;;;;4.55;1.85;;;;;;;;;;5108215;28;20457;-70
2021/06/30 06:04:03;;;;;;;;;;;;;;;;;;5110409;28;20130;-68
2021/06/30 06:06:28;;;;;;;1.35;1.23;;;;;;;;;;5109824;28;20031;-69
2021/06/30 06:08:54;;;;;;;;;;;;;;;;;;5109171;28;20040;-69
2021/06/30 06:11:21;;;;;;;2.58;1.55;;;;;;;;;;5109696;28;19916;-70
2021/06/30 06:13:47;;;;;;;3.47;1.65;;;;;;;;;;5108018;28;20075;-69
2021/06/30 06:16:14;;;;;;;2.70;1.48;;;;;;;;;;5108111;28;20111;-71
2021/06/30 06:18:40;;;;;;;1.83;1.40;;;;;;;;;;5110115;28;20051;-71
2021/06/30 06:21:06;;;;;;;1.55;1.08;;;;;;;;;;5109266;28;20096;-70
2021/06/30 06:23:32;;;;;;;;;;;;;;;;;;5109723;28;20534;-72
2021/06/30 06:25:58;;;;;;;5.20;1.42;;;;;;;;;;5105639;28;19923;-72
2021/06/30 06:28:29;;;;;;;2.67;1.73;;;;;;;;;;5103450;27;20032;-70
2021/06/30 06:30:55;;;;;;;1.88;1.38;;;;;;;;;;5108611;28;20035;-70
2021/06/30 06:33:21;;;;;;;;;;;;;;;;;;5102526;28;20032;-71
2021/06/30 06:35:48;;;;;;;1.37;1.20;;;;;;;;;;5089038;28;19943;-69
2021/06/30 06:38:13;;;;;;;;;;;;;;;;;;5089402;28;20140;-72
2021/06/30 06:40:40;;;;;;;1.65;1.55;;;;;;;;;;5089036;28;20014;-69
2021/06/30 06:43:07;;;;;;;2.90;1.55;;;;;;;;;;5088192;28;20048;-71
2021/06/30 06:45:33;;;;;;;2.38;1.63;;;;;;;;;;5087807;28;20039;-71
2021/06/30 06:47:59;;;;;;;;;;;;;;;;;;5089097;28;20036;-71
2021/06/30 06:50:25;;;;;;;3.17;2.30;;;;;;;;;;5089230;28;19923;-70
2021/06/30 06:52:51;;;;;;;3.35;1.80;;;;;;;;;;5088610;28;20031;-68
2021/06/30 06:55:18;;;;;;;4.70;2.10;;;;;;;;;;5109354;28;20501;-68
2021/06/30 06:57:44;;;;;;;4.60;2.17;;;;;;;;;;5093028;27;20051;-71
2021/06/30 07:00:10;;;;;;;14.80;3.35;;;;;;;;;;5110720;28;20039;-69
2021/06/30 07:02:37;;;;;;;2.17;1.20;;;;;;;;;;5127763;27;20047;-69
2021/06/30 07:05:03;;;;;;;3.85;2.30;;;;;;;;;;5129213;27;20139;-69
2021/06/30 07:07:29;;;;;;;2.72;2.17;;;;;;;;;;5129453;27;20133;-69
2021/06/30 07:09:55;;;;;;;;;;;;;;;;;;5129249;28;20122;-71
2021/06/30 07:12:21;;;;;;;5.57;1.40;;;;;;;;;;5129398;28;19932;-70
2021/06/30 07:14:47;;;;;;;2.00;1.10;;;;;;;;;;5110764;28;20050;-67
2021/06/30 07:17:13;;;;;;;;;;;;;;;;;;5110200;27;20043;-68
2021/06/30 07:19:40;;;;;;;2.30;1.40;;;;;;;;;;5122959;28;19918;-69
2021/06/30 07:22:06;;;;;;;2.78;1.50;;;;;;;;;;5118858;28;20065;-70
2021/06/30 07:24:32;;;;;;;;;;;;;;;;;;5128215;28;20103;-68
2021/06/30 07:26:58;;;;;;;1.83;1.13;;;;;;;;;;5120890;28;19924;-70
2021/06/30 07:29:24;;;;;;;;;;;;;;;;;;5124125;27;20066;-71
2021/06/30 07:31:50;;;;;;;2.73;1.60;;;;;;;;;;5130402;27;19915;-70
2021/06/30 07:34:16;;;;;;;1.70;1.60;;;;;;;;;;5105600;27;20567;-69
2021/06/30 07:36:42;;;;;;;1.92;1.45;;;;;;;;;;5108388;27;20047;-70
2021/06/30 07:39:08;;;;;;;;;;;;;;;;;;5133342;27;20545;-69
2021/06/30 07:41:34;;;;;;;2.28;1.10;;;;;;;;;;5132901;27;19963;-71
2021/06/30 07:44:00;;;;;;;1.80;1.15;;;;;;;;;;5132862;27;20102;-70
2021/06/30 07:46:26;;;;;;;;;;;;;;;;;;5133206;27;20430;-70
2021/06/30 07:48:52;;;;;;;2.90;1.90;;;;;;;;;;5133259;27;19915;-68
2021/06/30 07:51:18;;;;;;;1.30;1.08;;;;;;;;;;5125571;27;20036;-71
2021/06/30 07:53:44;;;;;;;3.97;1.25;;;;;;;;;;5094083;28;20035;-70
2021/06/30 07:56:11;;;;;;;;;;;;;;;;;;5117318;27;20099;-70
2021/06/30 07:58:38;;;;;;;4.07;1.73;;;;;;;;;;5112705;27;19941;-69
2021/06/30 08:01:03;;;;;;;1.50;1.20;;;;;;;;;;5120185;27;20136;-68
2021/06/30 08:03:29;;;;;;;;;;;;;;;;;;5093615;28;20131;-68
2021/06/30 08:05:55;;;;;;;1.95;1.33;;;;;;;;;;5111401;28;19927;-69
2021/06/30 08:08:21;;;;;;;1.60;1.13;;;;;;;;;;5111854;28;20406;-68
2021/06/30 08:10:48;;;;;;;1.42;1.08;;;;;;;;;;5112196;28;20044;-69
2021/06/30 08:13:14;;;;;;;3.70;1.17;;;;;;;;;;5111587;28;20043;-71
2021/06/30 08:15:40;;;;;;;;;;;;;;;;;;5111725;28;20040;-69
2021/06/30 08:18:06;;;;;;;2.45;1.20;;;;;;;;;;5111666;28;19931;-70
2021/06/30 08:20:32;;;;;;;2.03;1.13;;;;;;;;;;5114063;27;20237;-68
2021/06/30 08:22:58;;;;;;;;;;;;;;;;;;5125160;27;20039;-71
2021/06/30 08:25:24;;;;;;;1.90;1.05;;;;;;;;;;5132981;27;20535;-68
2021/06/30 08:27:50;;;;;;;;;;;;;;;;;;5134327;27;20039;-68
2021/06/30 08:30:16;;;;;;;2.55;1.10;;;;;;;;;;5129070;27;19943;-69
2021/06/30 08:32:45;;;;;;;1.48;0.90;;;;;;;;;;5094872;27;20077;-71
2021/06/30 08:35:13;;;;;;;1.48;1.00;;;;;;;;;;5132300;27;20067;-70
2021/06/30 08:37:40;;;;;;;1.75;1.50;;;;;;;;;;5130979;27;20050;-70
2021/06/30 08:40:10;;;;;;;4.18;1.50;;;;;;;;;;5131246;27;20172;-70
2021/06/30 08:42:36;;;;;;;1.25;1.00;;;;;;;;;;5132170;27;20043;-70
2021/06/30 08:45:03;;;;;;;1.85;1.25;;;;;;;;;;5131347;27;20043;-70
2021/06/30 08:47:33;;;;;;;1.20;1.10;;;;;;;;;;5131038;27;20517;-69
2021/06/30 08:50:00;;;;;;;1.98;1.15;;;;;;;;;;5131121;27;20118;-70
2021/06/30 08:52:26;;;;;;;1.50;1.20;;;;;;;;;;5130690;27;20039;-70
2021/06/30 08:54:53;;;;;;;2.35;1.00;;;;;;;;;;5131643;27;20042;-70
2021/06/30 08:57:20;;;;;;;1.75;1.08;;;;;;;;;;5131324;27;20051;-71
2021/06/30 08:59:48;;;;;;;1.17;0.70;;;;;;;;;;5134147;27;20054;-70
2021/06/30 09:02:14;;;;;;;1.92;0.90;;;;;;;;;;5129434;27;20042;-71
2021/06/30 09:04:42;;;;;;;3.42;0.88;;;;;;;;;;5132135;27;20107;-70
2021/06/30 09:07:08;;;;;;;0.60;0.60;;;;;;;;;;5130751;27;20058;-71
2021/06/30 09:09:34;;;;;;;;;;;;;;;;;;5125623;27;20092;-70
2021/06/30 09:12:00;;;;;;;0.98;0.82;;;;;;;;;;5128251;27;19915;-71
2021/06/30 09:14:26;;;;;;;;;;;;;;;;;;5131249;27;20117;-71
2021/06/30 09:16:55;;;;;;;1.58;0.77;;;;;;;;;;5126862;27;19920;-69
2021/06/30 09:19:21;;;;;;;0.88;0.80;;;;;;;;;;5120475;27;20042;-67
2021/06/30 09:21:47;;;;;;;;;;;;;;;;;;5127489;27;20477;-68
2021/06/30 09:24:18;;;;;;;0.70;0.63;;;;;;;;;;5121973;27;19922;-69
2021/06/30 09:26:49;;;;;;;3.78;0.70;;;;;;;;;;5130710;27;20054;-68
2021/06/30 09:29:15;;;;;;;3.28;0.93;;;;;;;;;;5133453;27;20486;-68
2021/06/30 09:31:42;;;;;;;4.88;1.60;;;;;;;;;;5099926;28;20035;-68
2021/06/30 09:34:08;;;;;;;3.00;1.13;;;;;;;;;;5122961;27;20039;-69
2021/06/30 09:36:47;;;;;;;0.88;0.43;;;;;;;;;;5112714;27;20051;-67
2021/06/30 09:39:13;;;;;;;4.45;0.60;;;;;;;;;;5129728;27;20072;-68
2021/06/30 09:41:43;;;;;;;0.60;0.60;;;;;;;;;;5125235;27;20078;-67
2021/06/30 09:44:11;;;;;;;2.90;0.70;;;;;;;;;;5129645;27;20050;-69
2021/06/30 09:46:38;;;;;;;1.27;0.68;;;;;;;;;;5128892;27;20047;-68
2021/06/30 09:49:08;;;;;;;0.57;0.45;;;;;;;;;;5130481;27;20487;-68
2021/06/30 09:51:35;;;;;;;2.45;1.73;;;;;;;;;;5129203;27;20035;-68
2021/06/30 09:54:08;;;;;;;3.83;1.38;;;;;;;;;;5129897;27;20035;-69
2021/06/30 09:56:35;;;;;;;0.98;0.70;;;;;;;;;;5124920;27;20043;-70
2021/06/30 09:59:10;;;;;;;0.47;0.47;;;;;;;;;;5124037;27;20046;-70
2021/06/30 10:01:37;;;;;;;1.00;0.80;;;;;;;;;;5123321;27;20035;-71
2021/06/30 10:04:03;;;;;;;1.23;0.80;;;;;;;;;;5128179;27;20035;-71
2021/06/30 10:06:33;;;;;;;0.80;0.75;;;;;;;;;;5122540;27;20046;-70
2021/06/30 10:09:00;;;;;;;1.13;0.50;;;;;;;;;;5110684;27;20534;-72
2021/06/30 10:11:32;;;;;;;0.60;0.50;;;;;;;;;;5117274;27;20067;-71
2021/06/30 10:13:59;;;;;;;0.85;0.60;;;;;;;;;;5091271;28;20042;-72
2021/06/30 10:16:25;;;;;;;7.53;4.85;;;;;;;;;;5114799;27;20574;-71
2021/06/30 10:18:52;;;;;;;1.63;0.85;;;;;;;;;;5122756;27;20549;-71
2021/06/30 10:21:20;;;;;;;1.48;0.77;;;;;;;;;;5129491;27;20677;-71
2021/06/30 10:23:47;;;;;;;2.05;0.60;;;;;;;;;;5129330;27;20050;-71
2021/06/30 10:26:15;;;;;;;1.33;0.70;;;;;;;;;;5129701;27;20039;-69
2021/06/30 10:28:41;;;;;;;0.60;0.60;;;;;;;;;;5131594;27;20143;-71
2021/06/30 10:31:07;;;;;;;0.80;0.68;;;;;;;;;;5128898;27;20394;-71
2021/06/30 10:33:37;;;;;;;3.08;0.75;;;;;;;;;;5120717;27;20122;-70
2021/06/30 10:36:04;;;;;;;0.60;0.55;;;;;;;;;;5090474;28;20529;-71
2021/06/30 10:38:49;;;;;;;0.70;0.60;;;;;;;;;;5108723;28;20070;-70
2021/06/30 10:41:39;;;;;;;0.98;0.60;;;;;;;;;;5108762;28;20086;-70
2021/06/30 10:44:09;;;;;;;0.63;0.47;;;;;;;;;;5097977;28;20412;-69
2021/06/30 10:46:35;;;;;;;1.05;0.57;;;;;;;;;;5108123;28;20039;-69
2021/06/30 10:49:20;;;;;;;0.82;0.50;;;;;;;;;;5107839;28;20043;-68
2021/06/30 10:51:47;;;;;;;0.52;0.52;;;;;;;;;;5090596;28;20038;-68
2021/06/30 10:54:32;;;;;;;4.32;0.70;;;;;;;;;;5108498;28;20120;-70
2021/06/30 10:57:17;;;;;;;4.43;0.60;;;;;;;;;;5120052;27;20058;-70
2021/06/30 11:00:02;;;;;;;0.80;0.50;;;;;;;;;;5131966;27;20035;-73
2021/06/30 11:02:31;;;;;;;0.60;0.60;;;;;;;;;;5107634;28;20084;-67
2021/06/30 11:04:58;;;;;;;0.65;0.43;;;;;;;;;;5107741;28;20077;-69
2021/06/30 11:07:32;;;;;;;0.85;0.60;;;;;;;;;;5111327;27;20130;-67
2021/06/30 11:09:58;;;;;;;1.10;0.88;;;;;;;;;;5119833;28;20517;-67
2021/06/30 11:12:42;;;;;;;1.30;0.85;;;;;;;;;;5129450;28;20054;-69
2021/06/30 11:15:08;;;;;;;3.22;0.70;;;;;;;;;;5125819;28;20039;-68
2021/06/30 11:17:36;;;;;;;;;;;;;;;;;;5129599;28;20042;-69
2021/06/30 11:20:02;;;;;;;3.42;0.80;;;;;;;;;;5122823;28;20010;-69
2021/06/30 11:22:29;;;;;;;1.20;0.60;;;;;;;;;;5107601;28;20129;-70
2021/06/30 11:24:56;;;;;;;1.05;0.80;;;;;;;;;;5114168;28;20039;-70
2021/06/30 11:27:34;;;;;;;3.10;0.82;;;;;;;;;;5108017;28;20044;-72
2021/06/30 11:30:02;;;;;;;1.42;1.00;;;;;;;;;;5131062;27;20039;-69
2021/06/30 11:32:38;;;;;;;1.35;1.00;;;;;;;;;;5128201;28;20083;-68
2021/06/30 11:35:25;;;;;;;0.60;0.50;;;;;;;;;;5107325;28;20048;-69
2021/06/30 11:37:58;;;;;;;2.30;1.67;;;;;;;;;;5107710;28;20419;-69
2021/06/30 11:43:22;;;;;;;2.75;0.93;;;;;;;;;;5107968;28;20463;-70
2021/06/30 11:45:48;;;;;;;2.92;2.33;;;;;;;;;;5107507;28;20114;-70
2021/06/30 11:48:15;;;;;;;1.80;1.50;;;;;;;;;;5107611;28;20050;-70
2021/06/30 11:50:55;;;;;;;1.48;1.00;;;;;;;;;;5107740;28;20046;-70
2021/06/30 11:53:50;;;;;;;0.60;0.55;;;;;;;;;;5107923;28;20124;-70
2021/06/30 11:56:25;;;;;;;3.28;0.90;;;;;;;;;;5104321;28;20130;-70
2021/06/30 11:58:52;;;;;;;1.80;0.60;;;;;;;;;;5130365;27;20035;-69
2021/06/30 12:01:21;;;;;;;1.27;0.75;;;;;;;;;;5098174;28;20111;-71
2021/06/30 12:03:47;;;;;;;1.50;0.93;;;;;;;;;;5116808;28;20538;-71
2021/06/30 12:06:26;;;;;;;1.20;0.98;;;;;;;;;;5108301;28;20053;-68
2021/06/30 12:09:11;;;;;;;2.30;1.05;;;;;;;;;;5104982;28;20662;-68
2021/06/30 12:11:38;;;;;;;2.67;0.95;;;;;;;;;;5121728;28;20556;-70
2021/06/30 12:14:05;;;;;;;1.15;0.93;;;;;;;;;;5129568;27;20372;-69
2021/06/30 12:16:48;;;;;;;1.20;0.98;;;;;;;;;;5122605;27;20066;-70
2021/06/30 12:19:19;;;;;;;2.75;0.98;;;;;;;;;;5103767;27;20039;-70
2021/06/30 12:21:46;;;;;;;1.45;0.75;;;;;;;;;;5114861;27;20088;-70
2021/06/30 12:24:13;;;;;;;1.02;0.60;;;;;;;;;;5121163;27;20044;-70
2021/06/30 12:27:18;;;;;;;2.25;0.70;;;;;;;;;;5102692;27;20376;-69
2021/06/30 12:29:44;;;;;;;1.50;0.70;;;;;;;;;;5055698;28;20504;-70
2021/06/30 12:32:12;;;;;;;0.77;0.70;;;;;;;;;;5046716;28;20420;-72
2021/06/30 12:34:39;;;;;;;0.70;0.60;;;;;;;;;;5070412;28;20523;-70
2021/06/30 12:37:05;;;;;;;0.75;0.57;;;;;;;;;;5108515;28;20039;-70
2021/06/30 12:39:33;;;;;;;1.00;0.80;;;;;;;;;;5111093;28;20143;-71
2021/06/30 12:41:59;;;;;;;0.88;0.60;;;;;;;;;;5092358;28;20046;-70
2021/06/30 12:44:25;;;;;;;;;;;;;;;;;;5111526;28;20039;-70
2021/06/30 12:47:06;;;;;;;2.13;1.60;;;;;;;;;;5091751;28;19924;-69
2021/06/30 12:49:32;;;;;;;1.65;1.33;;;;;;;;;;5110766;27;20043;-69
2021/06/30 12:51:58;;;;;;;;;;;;;;;;;;5127358;27;20403;-70
2021/06/30 12:54:24;;;;;;;1.00;0.43;;;;;;;;;;5121419;27;19992;-70
2021/06/30 12:57:01;;;;;;;1.67;0.40;;;;;;;;;;5129460;27;20035;-69
2021/06/30 12:59:27;;;;;;;0.20;0.20;;;;;;;;;;5128657;27;20035;-70
2021/06/30 13:01:53;;;;;;;;;;;;;;;;;;5100252;28;20040;-69
2021/06/30 13:04:28;;;;;;;0.20;0.20;;;;;;;;;;5105053;28;19973;-68
2021/06/30 13:06:54;;;;;;;0.22;0.22;;;;;;;;;;5106451;28;20533;-68
2021/06/30 13:09:24;;;;;;;1.48;0.60;;;;;;;;;;5101519;28;20115;-67
2021/06/30 13:11:53;;;;;;;2.60;0.57;;;;;;;;;;5094186;28;20044;-69
2021/06/30 13:14:23;;;;;;;1.85;0.80;;;;;;;;;;5089212;28;20040;-69
2021/06/30 13:16:55;;;;;;;2.72;0.65;;;;;;;;;;5115058;27;20054;-69
2021/06/30 13:19:22;;;;;;;1.58;1.02;;;;;;;;;;5122338;27;20507;-69
2021/06/30 13:21:53;;;;;;;1.63;0.50;;;;;;;;;;5123204;27;20043;-69
2021/06/30 13:24:25;;;;;;;0.70;0.60;;;;;;;;;;5130682;27;20071;-69
2021/06/30 13:27:34;;;;;;;1.63;0.70;;;;;;;;;;5130351;27;20054;-67
2021/06/30 13:35:19;;;;;;;2.00;1.50;;;;;;;;;;5130616;27;20464;-70
2021/06/30 13:37:46;;;;;;;1.10;0.90;;;;;;;;;;5126098;27;20035;-69
2021/06/30 13:40:12;;;;;;;0.70;0.70;;;;;;;;;;5121533;27;20187;-68
2021/06/30 13:42:38;;;;;;;3.83;2.45;;;;;;;;;;5130110;27;20031;-70
2021/06/30 13:45:04;;;;;;;;;;;;;;;;;;5125681;27;20051;-69
2021/06/30 13:47:31;;;;;;;0.80;0.80;;;;;;;;;;5131575;27;20268;-70
2021/06/30 13:49:56;;;;;;;1.20;1.00;;;;;;;;;;5113078;27;20517;-68
2021/06/30 13:52:22;;;;;;;;;;;;;;;;;;5130815;27;20135;-67
2021/06/30 13:54:48;;;;;;;1.00;0.80;;;;;;;;;;5130539;27;20566;-68
2021/06/30 13:57:14;;;;;;;1.20;1.00;;;;;;;;;;5112391;27;20057;-69
2021/06/30 13:59:40;;;;;;;1.90;0.85;;;;;;;;;;5132747;27;20122;-67
2021/06/30 14:02:06;;;;;;;;;;;;;;;;;;5120784;27;20180;-68
2021/06/30 14:04:32;;;;;;;1.60;0.90;;;;;;;;;;5118997;27;19915;-68
2021/06/30 14:06:58;;;;;;;;;;;;;;;;;;5122733;27;20072;-69
2021/06/30 14:09:24;;;;;;;1.23;1.13;;;;;;;;;;5122397;27;19926;-69
2021/06/30 14:11:50;;;;;;;;;;;;;;;;;;5118735;27;20118;-69
2021/06/30 14:14:16;;;;;;;1.33;0.77;;;;;;;;;;5113604;27;19926;-69
2021/06/30 14:16:42;;;;;;;3.50;1.13;;;;;;;;;;5129465;27;20050;-69
2021/06/30 14:19:08;;;;;;;;;;;;;;;;;;5130237;27;20042;-66
2021/06/30 14:21:34;;;;;;;1.70;1.25;;;;;;;;;;5125176;27;20022;-70
2021/06/30 14:24:00;;;;;;;1.75;1.20;;;;;;;;;;5126006;27;20088;-70
2021/06/30 14:26:26;;;;;;;;;;;;;;;;;;5117992;27;20040;-69
2021/06/30 14:28:52;;;;;;;3.42;1.50;;;;;;;;;;5110608;27;20010;-69
2021/06/30 14:31:18;;;;;;;1.25;1.15;;;;;;;;;;5129451;27;20076;-70
2021/06/30 14:33:45;;;;;;;;;;;;;;;;;;5129735;27;20035;-70
2021/06/30 14:36:11;;;;;;;2.20;2.00;;;;;;;;;;5128493;27;20025;-69
2021/06/30 14:38:37;;;;;;;1.52;1.40;;;;;;;;;;5123956;27;20051;-69
2021/06/30 14:41:03;;;;;;;;;;;;;;;;;;5126612;27;20616;-70
2021/06/30 14:43:29;;;;;;;1.40;1.30;;;;;;;;;;5120205;27;20474;-70
2021/06/30 14:45:59;;;;;;;2.30;2.08;;;;;;;;;;5108352;28;20027;-71
2021/06/30 14:48:26;;;;;;;8.02;2.10;;;;;;;;;;5090669;28;20051;-70
2021/06/30 14:50:52;;;;;;;3.00;1.92;;;;;;;;;;5109744;27;20059;-71
2021/06/30 14:53:18;;;;;;;;;;;;;;;;;;5110640;27;20073;-70
2021/06/30 14:55:44;;;;;;;2.45;1.67;;;;;;;;;;5109632;28;19915;-70
2021/06/30 14:58:10;;;;;;;2.50;2.30;;;;;;;;;;5119074;27;20510;-71
2021/06/30 15:00:36;;;;;;;;;;;;;;;;;;5117368;28;20044;-70
2021/06/30 15:03:02;;;;;;;2.28;1.85;;;;;;;;;;5112190;27;19923;-71
2021/06/30 15:05:28;;;;;;;2.20;1.63;;;;;;;;;;5120298;27;20731;-70
2021/06/30 15:07:54;;;;;;;;;;;;;;;;;;5097685;28;20051;-69
2021/06/30 15:10:21;;;;;;;2.85;2.47;;;;;;;;;;5117966;28;20504;-72
2021/06/30 15:12:47;;;;;;;2.60;2.03;;;;;;;;;;5130045;28;20042;-69
2021/06/30 15:15:13;;;;;;;4.22;2.33;;;;;;;;;;5128989;28;20043;-70
2021/06/30 15:17:39;;;;;;;;;;;;;;;;;;5129763;28;20047;-69